Terminal Aerodrome Forecast
Issued by NWS Boston, MA

Current Version | Previous Version | Text Only | Print | Product List | Glossary On
Versions: 1 2 3 4 5 6 7 8 9 10 11 12 13 14 15 16 17 18 19
000 FTUS41 KBOX 311129 TAFORH TAF KORH 311129Z 3112/0112 02005KT P6SM FEW017 OVC050 FM010100 06006KT P6SM OVC025 FM010300 04006KT P6SM OVC015 FM010600 02007KT P6SM OVC025 FM010900 02008KT 3SM BR OVC025=

USA.gov is the U.S. government's official web portal to all federal, state and local government web resources and services.